createdAt,value
2023-05-14T00:06:52.927Z,13
2023-05-14T00:08:58.716Z,13
2023-05-14T00:11:04.510Z,13
2023-05-14T00:13:13.261Z,13
2023-05-14T00:15:19.060Z,12.9
2023-05-14T00:19:30.641Z,13.1
2023-05-14T00:23:42.167Z,12.9
2023-05-14T00:25:48.004Z,13
2023-05-14T00:36:19.790Z,12.8
2023-05-14T00:42:41.674Z,12.8
2023-05-14T00:44:47.486Z,12.8
2023-05-14T00:48:59.021Z,12.7
2023-05-14T00:53:10.595Z,12.8
2023-05-14T00:57:25.116Z,12.6
2023-05-14T00:59:30.892Z,12.6
2023-05-14T01:01:36.645Z,12.6
2023-05-14T01:02:41.119Z,12.6
2023-05-14T01:04:46.853Z,12.6
2023-05-14T01:06:52.647Z,12.5
2023-05-14T01:08:58.390Z,12.6
2023-05-14T01:13:12.882Z,12.5
2023-05-14T01:15:18.677Z,12.5
2023-05-14T01:27:56.316Z,12.4
2023-05-14T01:32:07.985Z,12.4
2023-05-14T01:34:13.632Z,12.3
2023-05-14T01:36:19.390Z,12.2
2023-05-14T01:38:25.149Z,12.2
2023-05-14T01:40:33.877Z,12.2
2023-05-14T01:42:39.625Z,12.2
2023-05-14T01:44:45.406Z,12.1
2023-05-14T01:46:51.162Z,12.1
2023-05-14T01:48:56.956Z,12
2023-05-14T01:51:02.722Z,12
2023-05-14T01:53:08.484Z,12
2023-05-14T01:55:17.260Z,12
2023-05-14T01:57:23.009Z,11.9
2023-05-14T01:59:28.752Z,11.9
2023-05-14T02:00:33.135Z,11.9
2023-05-14T02:02:38.951Z,11.9
2023-05-14T02:23:42.476Z,11.3
2023-05-14T02:29:59.746Z,11.3
2023-05-14T02:32:05.567Z,11.3
2023-05-14T02:40:31.614Z,11.2
2023-05-14T02:44:43.212Z,11.2
2023-05-14T02:46:49.105Z,11.2
2023-05-14T02:48:54.864Z,11.2
2023-05-14T02:51:00.676Z,11.1
2023-05-14T02:55:15.264Z,11.1
2023-05-14T02:57:21.036Z,11.1
2023-05-14T03:00:31.230Z,11
2023-05-14T03:06:51.673Z,10.9
2023-05-14T03:08:57.519Z,10.9
2023-05-14T03:13:09.278Z,10.9
2023-05-14T03:15:15.049Z,10.9
2023-05-14T03:17:20.924Z,10.9
2023-05-14T03:19:26.733Z,10.9
2023-05-14T03:21:35.688Z,10.9
2023-05-14T03:25:47.392Z,10.9
2023-05-14T03:27:53.117Z,10.8
2023-05-14T03:29:58.855Z,10.8
2023-05-14T03:32:04.721Z,10.8
2023-05-14T03:34:10.537Z,10.9
2023-05-14T03:36:19.432Z,10.8
2023-05-14T03:38:25.297Z,10.8
2023-05-14T03:40:31.111Z,10.8
2023-05-14T03:42:36.976Z,10.7
2023-05-14T03:46:48.656Z,10.7
2023-05-14T03:48:54.514Z,10.7
2023-05-14T03:51:03.404Z,10.7
2023-05-14T03:53:09.231Z,10.7
2023-05-14T03:55:14.968Z,10.7
2023-05-14T03:57:35.218Z,10.7
2023-05-14T04:03:55.851Z,10.6
2023-05-14T04:08:07.464Z,10.6
2023-05-14T04:12:19.141Z,10.6
2023-05-14T04:14:24.998Z,10.6
2023-05-14T04:16:30.856Z,10.6
2023-05-14T04:18:39.795Z,10.6
2023-05-14T04:20:45.591Z,10.6
2023-05-14T04:22:51.420Z,10.7
2023-05-14T04:24:57.273Z,10.7
2023-05-14T04:27:03.113Z,10.8
2023-05-14T04:31:14.822Z,10.8
2023-05-14T04:33:23.727Z,10.7
2023-05-14T04:35:29.559Z,10.8
2023-05-14T04:37:35.291Z,10.8
2023-05-14T04:39:41.060Z,10.9
2023-05-14T04:41:46.876Z,10.9
2023-05-14T04:43:52.718Z,11
2023-05-14T04:45:58.480Z,10.9
2023-05-14T04:48:07.427Z,11
2023-05-14T04:50:13.127Z,10.9
2023-05-14T04:52:18.981Z,10.9
2023-05-14T04:53:23.450Z,11
2023-05-14T04:55:29.276Z,11
2023-05-14T05:03:55.580Z,11.2
2023-05-14T05:06:01.301Z,11.2
2023-05-14T05:08:07.015Z,11.3
2023-05-14T05:10:12.868Z,11.4
2023-05-14T05:12:18.724Z,11.5
2023-05-14T05:14:24.452Z,11.4
2023-05-14T05:16:33.334Z,11.6
2023-05-14T05:18:39.128Z,11.6
2023-05-14T05:20:44.803Z,11.5
2023-05-14T05:22:50.650Z,11.6
2023-05-14T05:27:02.234Z,12.1
2023-05-14T05:31:18.980Z,12.2
2023-05-14T05:45:59.980Z,12.7
2023-05-14T05:48:05.762Z,12.9
2023-05-14T05:51:15.904Z,13.1
2023-05-14T05:53:21.630Z,13.2
2023-05-14T05:55:27.414Z,13.4
2023-05-14T05:59:41.896Z,13.9
2023-05-14T06:03:53.455Z,13.3
2023-05-14T06:05:59.213Z,13.7
2023-05-14T06:12:16.554Z,14.3
2023-05-14T06:14:25.372Z,14.9
2023-05-14T06:22:48.423Z,15.6
2023-05-14T06:24:54.206Z,15.8
2023-05-14T06:33:20.704Z,19.3
2023-05-14T06:35:26.056Z,18.2
2023-05-14T06:37:31.834Z,15.7
2023-05-14T06:41:43.423Z,14.8
2023-05-14T06:43:53.789Z,16
2023-05-14T06:49:09.724Z,15.7
2023-05-14T06:51:15.484Z,15.8
2023-05-14T06:53:21.315Z,15.4
2023-05-14T06:55:27.087Z,16.1
2023-05-14T07:01:47.504Z,18.6
2023-05-14T07:03:53.273Z,18.9
2023-05-14T07:05:59.011Z,19.5
2023-05-14T07:08:04.784Z,20.3
2023-05-14T07:39:37.388Z,18.7
2023-05-14T07:41:46.143Z,19.1
2023-05-14T07:43:51.883Z,19.2
2023-05-14T07:45:57.678Z,18.5
2023-05-14T07:48:28.922Z,21.4
2023-05-14T07:50:34.668Z,21.7
2023-05-14T07:52:40.384Z,22.8
2023-05-14T07:54:50.656Z,21.2
2023-05-14T07:56:54.891Z,20.4
2023-05-14T07:59:00.662Z,20.9
2023-05-14T08:01:06.377Z,21.3
2023-05-14T08:03:12.232Z,21
2023-05-14T08:05:17.872Z,21.1
2023-05-14T08:07:23.573Z,21.1
2023-05-14T08:11:37.979Z,20.7
2023-05-14T08:13:43.724Z,20.5
2023-05-14T08:15:49.419Z,19.9
2023-05-14T08:17:55.191Z,20.6
2023-05-14T08:20:00.838Z,20.3
2023-05-14T08:24:15.261Z,21.1
2023-05-14T08:26:20.961Z,20.8
2023-05-14T08:30:32.418Z,20.7
2023-05-14T08:38:58.147Z,21.2
2023-05-14T08:41:03.869Z,21.6
2023-05-14T08:44:13.929Z,20.9
2023-05-14T08:52:39.689Z,20.8
2023-05-14T08:54:45.348Z,20.9
2023-05-14T08:56:52.006Z,21.7
2023-05-14T08:58:56.750Z,21.4
2023-05-14T09:01:02.486Z,21
2023-05-14T09:03:08.189Z,21.7
2023-05-14T09:05:13.821Z,21.5
2023-05-14T09:09:28.191Z,21.6
2023-05-14T09:11:33.889Z,22.2
2023-05-14T09:13:39.546Z,22.7
2023-05-14T09:15:45.235Z,22.4
2023-05-14T09:17:50.954Z,22.3
2023-05-14T09:19:56.606Z,22.2
2023-05-14T09:22:05.304Z,22.2
2023-05-14T09:24:10.973Z,22.4
2023-05-14T09:26:16.626Z,21.8
2023-05-14T09:40:59.424Z,22.2
2023-05-14T09:42:03.803Z,22
2023-05-14T09:44:09.440Z,22
2023-05-14T09:46:15.164Z,22.4
2023-05-14T09:48:20.880Z,22.5
2023-05-14T09:50:29.564Z,22.6
2023-05-14T09:52:35.229Z,22.6
2023-05-14T10:03:03.763Z,21.5
2023-05-14T10:13:35.292Z,22.3
2023-05-14T10:15:40.998Z,22
2023-05-14T10:17:46.740Z,21.7
2023-05-14T10:19:55.395Z,22
2023-05-14T10:22:01.135Z,22.3
2023-05-14T10:24:06.827Z,22.5
2023-05-14T10:26:12.556Z,21.6
2023-05-14T10:28:18.252Z,22.1
2023-05-14T10:30:24.444Z,22.2
2023-05-14T10:32:29.752Z,21.8
2023-05-14T10:34:38.533Z,22.3
2023-05-14T10:36:44.148Z,22.5
2023-05-14T10:38:49.840Z,22.9
2023-05-14T10:39:54.235Z,22.5
2023-05-14T10:41:59.937Z,22.5
2023-05-14T10:44:05.626Z,22.5
2023-05-14T10:46:11.431Z,22.3
2023-05-14T10:48:20.153Z,22.2
2023-05-14T10:50:26.024Z,22.5
2023-05-14T10:52:31.501Z,22.8
2023-05-14T10:56:42.920Z,22.5
2023-05-14T10:58:48.640Z,22.6
2023-05-14T11:00:54.349Z,22.5
2023-05-14T11:03:03.092Z,22.2
2023-05-14T11:05:08.786Z,22.6
2023-05-14T11:07:14.533Z,23.2
2023-05-14T11:09:20.213Z,23.4
2023-05-14T11:11:25.924Z,23.3
2023-05-14T11:19:51.796Z,22.4
2023-05-14T11:24:03.293Z,22.3
2023-05-14T11:28:14.646Z,23.3
2023-05-14T11:32:29.064Z,23.5
2023-05-14T11:34:34.770Z,23.6
2023-05-14T11:36:40.502Z,23.4
2023-05-14T11:39:11.581Z,24
2023-05-14T11:41:17.302Z,24.1
2023-05-14T11:43:22.986Z,23.5
2023-05-14T11:45:31.709Z,23.2
2023-05-14T11:47:37.428Z,23.2
2023-05-14T11:49:43.135Z,23.6
2023-05-14T11:51:48.848Z,23.4
2023-05-14T11:53:54.555Z,23
2023-05-14T11:56:00.241Z,23
2023-05-14T11:58:06.028Z,23.6
2023-05-14T12:02:20.428Z,23.7
2023-05-14T12:06:31.838Z,22.9
2023-05-14T12:08:37.566Z,23.3
2023-05-14T12:10:43.244Z,23.5
2023-05-14T12:12:48.989Z,23.4
2023-05-14T12:19:09.240Z,23.8
2023-05-14T12:25:26.323Z,22.9
2023-05-14T12:34:56.605Z,23.6
2023-05-14T12:37:02.346Z,23.6
2023-05-14T12:39:08.087Z,23.7
2023-05-14T12:41:13.772Z,23.3
2023-05-14T12:43:22.514Z,23.3
2023-05-14T12:45:29.857Z,23.5
2023-05-14T12:47:35.559Z,23.5
2023-05-14T12:49:41.308Z,23.6
2023-05-14T12:51:46.997Z,23.8
2023-05-14T12:53:52.754Z,23.9
2023-05-14T12:55:58.483Z,23.8
2023-05-14T12:58:07.193Z,23.9
2023-05-14T13:06:30.187Z,23.8
2023-05-14T13:08:35.877Z,23.8
2023-05-14T13:12:50.348Z,23.5
2023-05-14T13:17:01.852Z,23.5
2023-05-14T13:19:07.620Z,23.8
2023-05-14T13:21:13.306Z,24
2023-05-14T13:23:19.035Z,24.2
2023-05-14T13:25:24.972Z,24.2
2023-05-14T13:27:33.496Z,24.6
2023-05-14T13:29:39.237Z,24.4
2023-05-14T13:31:44.953Z,23.7
2023-05-14T13:32:49.360Z,23.5
2023-05-14T13:34:55.030Z,23.4
2023-05-14T13:37:00.758Z,23.8
2023-05-14T13:41:15.215Z,24.3
2023-05-14T13:43:20.930Z,24.1
2023-05-14T13:45:26.730Z,24
2023-05-14T13:47:32.435Z,23.8
2023-05-14T13:49:38.130Z,24
2023-05-14T13:51:43.857Z,23.5
2023-05-14T13:53:49.566Z,23.2
2023-05-14T13:55:58.363Z,23.7
2023-05-14T13:58:04.004Z,23.8
2023-05-14T14:00:09.780Z,23.5
2023-05-14T14:12:47.186Z,23.2
2023-05-14T14:16:58.623Z,23.4
2023-05-14T14:19:04.509Z,22.9
2023-05-14T14:23:15.858Z,23
2023-05-14T14:25:24.837Z,23.1
2023-05-14T14:29:36.060Z,22.8
2023-05-14T14:30:40.438Z,23.2
2023-05-14T14:36:57.638Z,23.1
2023-05-14T14:39:06.389Z,23.3
2023-05-14T14:43:17.926Z,23.1
2023-05-14T14:45:23.730Z,23
2023-05-14T14:51:40.857Z,23.1
2023-05-14T14:53:49.565Z,23.2
2023-05-14T14:55:55.325Z,23.1
2023-05-14T14:58:01.104Z,23.3
2023-05-14T15:00:06.881Z,23.4
2023-05-14T15:02:12.631Z,23.5
2023-05-14T15:04:18.297Z,23
2023-05-14T15:06:24.020Z,22.7
2023-05-14T15:08:32.782Z,22.6
2023-05-14T15:10:38.620Z,22.4
2023-05-14T15:12:44.255Z,22.4
2023-05-14T15:14:50.063Z,22.9
2023-05-14T15:16:55.838Z,22.9
2023-05-14T15:29:52.532Z,22.6
2023-05-14T15:34:04.064Z,22.5
2023-05-14T15:36:12.894Z,22.4
2023-05-14T15:38:18.525Z,22.3
2023-05-14T15:40:24.569Z,22.4
2023-05-14T15:42:30.047Z,22.4
2023-05-14T15:44:38.746Z,22.4
2023-05-14T15:46:41.636Z,22.3
2023-05-14T15:48:47.324Z,22.3
2023-05-14T15:50:56.073Z,22.2
2023-05-14T15:53:01.844Z,22.2
2023-05-14T15:55:07.600Z,22
2023-05-14T15:57:13.372Z,22.2
2023-05-14T16:01:24.950Z,22.3
2023-05-14T16:03:30.707Z,22
2023-05-14T16:05:39.395Z,21.8
2023-05-14T16:09:50.912Z,21.7
2023-05-14T16:14:02.449Z,22
2023-05-14T16:16:08.251Z,22.1
2023-05-14T16:18:13.964Z,22
2023-05-14T16:20:23.004Z,21.6
2023-05-14T16:22:28.475Z,21.6
2023-05-14T16:24:34.260Z,21.6
2023-05-14T16:25:38.654Z,21.7
2023-05-14T16:31:56.027Z,21.6
2023-05-14T16:34:04.688Z,21.6
2023-05-14T16:38:16.230Z,21.5
2023-05-14T16:40:22.113Z,21.6
2023-05-14T16:42:27.776Z,21.5
2023-05-14T16:44:33.546Z,21.5
2023-05-14T16:46:39.308Z,21.6
2023-05-14T16:52:59.554Z,21.4
2023-05-14T17:07:42.969Z,21
2023-05-14T17:09:48.758Z,20.8
2023-05-14T17:18:14.881Z,20.5
2023-05-14T17:20:20.567Z,20.5
2023-05-14T17:23:30.704Z,20.2
2023-05-14T17:25:36.478Z,20.2
2023-05-14T17:27:42.249Z,20.2
2023-05-14T17:29:48.026Z,20.1
2023-05-14T17:31:56.925Z,20
2023-05-14T17:34:02.550Z,19.8
2023-05-14T17:36:08.384Z,19.8
2023-05-14T17:38:14.115Z,19.6
2023-05-14T17:40:19.915Z,19.5
2023-05-14T17:44:31.445Z,19.4
2023-05-14T17:46:40.257Z,19.1
2023-05-14T17:48:45.998Z,18.9
2023-05-14T17:50:52.018Z,18.9
2023-05-14T17:52:57.581Z,18.7
2023-05-14T17:55:03.375Z,18.6
2023-05-14T17:57:09.155Z,18.6
2023-05-14T17:59:14.943Z,18.6
2023-05-14T18:01:23.773Z,18.3
2023-05-14T18:03:29.592Z,18.1
2023-05-14T18:05:35.322Z,17.9
2023-05-14T18:07:41.116Z,17.8
2023-05-14T18:11:53.762Z,17.5
2023-05-14T18:13:58.466Z,17.5
2023-05-14T18:16:07.278Z,17.4
2023-05-14T18:18:13.048Z,17.4
2023-05-14T18:20:18.867Z,17.4
2023-05-14T18:23:29.036Z,17.1
2023-05-14T18:29:49.385Z,16.8
2023-05-14T18:31:55.225Z,16.8
2023-05-14T18:34:01.028Z,16.7
2023-05-14T18:36:06.816Z,16.5
2023-05-14T18:38:12.618Z,16.5
2023-05-14T18:42:24.212Z,16.4
2023-05-14T18:52:57.794Z,16.3
2023-05-14T18:55:03.549Z,16.1
2023-05-14T18:57:09.325Z,16
2023-05-14T18:59:18.127Z,16
2023-05-14T19:05:35.513Z,16
2023-05-14T19:07:41.305Z,15.8
2023-05-14T19:09:47.109Z,15.8
2023-05-14T19:11:52.898Z,15.7
2023-05-14T19:14:01.685Z,15.7
2023-05-14T19:16:07.486Z,15.7
2023-05-14T19:18:13.286Z,15.7
2023-05-14T19:24:56.155Z,15.5
2023-05-14T19:29:10.750Z,15.4
2023-05-14T19:35:28.115Z,15.3
2023-05-14T19:37:33.905Z,15.3
2023-05-14T19:43:54.283Z,15.1
2023-05-14T19:46:01.511Z,15
2023-05-14T19:48:05.887Z,15.1
2023-05-14T19:50:11.647Z,15
2023-05-14T19:54:23.255Z,14.9
2023-05-14T19:56:31.983Z,14.8
2023-05-14T20:00:43.571Z,14.7
2023-05-14T20:04:55.176Z,14.7
2023-05-14T20:07:00.944Z,14.7
2023-05-14T20:09:06.767Z,14.7
2023-05-14T20:16:31.515Z,14.6
2023-05-14T20:18:37.359Z,14.5
2023-05-14T20:20:43.064Z,14.6
2023-05-14T20:22:48.870Z,14.5
2023-05-14T20:24:57.623Z,14.4
2023-05-14T20:29:09.195Z,14.4
2023-05-14T20:33:20.835Z,14.4
2023-05-14T20:48:04.452Z,14.2
2023-05-14T20:58:36.339Z,14.2
2023-05-14T21:00:42.128Z,14.1
2023-05-14T21:04:53.918Z,14.1
2023-05-14T21:13:19.879Z,14
2023-05-14T21:14:24.247Z,14
2023-05-14T21:16:30.107Z,13.9
2023-05-14T21:18:35.885Z,13.9
2023-05-14T21:22:50.429Z,13.9
2023-05-14T21:24:56.218Z,13.9
2023-05-14T21:39:39.630Z,13.6
2023-05-14T21:41:45.444Z,13.6
2023-05-14T21:48:02.817Z,13.5
2023-05-14T21:54:23.100Z,13.4
2023-05-14T21:56:28.881Z,13.4
2023-05-14T21:58:34.665Z,13.4
2023-05-14T22:00:40.469Z,13.3
2023-05-14T22:02:46.266Z,13.3
2023-05-14T22:09:06.520Z,13.2
2023-05-14T22:11:12.311Z,13.1
2023-05-14T22:12:16.658Z,13.1
2023-05-14T22:14:22.453Z,13.1
2023-05-14T22:16:28.300Z,13
2023-05-14T22:22:48.595Z,13
2023-05-14T22:24:54.339Z,13
2023-05-14T22:27:00.151Z,12.9
2023-05-14T22:29:05.926Z,12.9
2023-05-14T22:31:11.719Z,12.9
2023-05-14T22:33:17.482Z,12.9
2023-05-14T22:35:26.405Z,12.7
2023-05-14T22:37:31.991Z,12.8
2023-05-14T22:41:43.528Z,12.7
2023-05-14T22:43:49.329Z,12.8
2023-05-14T22:45:55.110Z,12.7
2023-05-14T22:48:00.928Z,12.7
2023-05-14T22:50:09.666Z,12.7
2023-05-14T22:54:21.149Z,12.6
2023-05-14T23:00:38.550Z,12.6
2023-05-14T23:02:44.333Z,12.5
2023-05-14T23:04:53.065Z,12.5
2023-05-14T23:06:58.824Z,12.5
2023-05-14T23:09:04.601Z,12.4
2023-05-14T23:15:47.454Z,12.3
2023-05-14T23:17:56.240Z,12.3
2023-05-14T23:20:02.001Z,12.2
2023-05-14T23:24:13.538Z,12.2
2023-05-14T23:26:19.363Z,12.2
2023-05-14T23:28:25.094Z,12.2
2023-05-14T23:30:30.820Z,12.1
2023-05-14T23:32:39.636Z,12
2023-05-14T23:34:45.369Z,12.1
2023-05-14T23:36:51.118Z,12.1
2023-05-14T23:43:08.426Z,12
2023-05-14T23:45:14.213Z,12
2023-05-14T23:49:28.719Z,11.9
2023-05-14T23:51:34.479Z,11.9
2023-05-14T23:53:40.287Z,11.9
2023-05-14T23:55:45.990Z,11.9
2023-05-14T23:57:51.773Z,11.9
